sensor_id;sensor_type;location;lat;lon;timestamp;temperature;humidity
55828;DHT22;41758;51.992;5.890;2023-11-19T00:02:10;17.50;73.80
55828;DHT22;41758;51.992;5.890;2023-11-19T00:04:39;17.50;73.80
55828;DHT22;41758;51.992;5.890;2023-11-19T00:07:05;17.60;73.80
55828;DHT22;41758;51.992;5.890;2023-11-19T00:09:35;17.60;73.80
55828;DHT22;41758;51.992;5.890;2023-11-19T00:12:03;17.60;73.80
55828;DHT22;41758;51.992;5.890;2023-11-19T00:14:30;17.60;73.70
55828;DHT22;41758;51.992;5.890;2023-11-19T00:16:55;17.60;73.60
55828;DHT22;41758;51.992;5.890;2023-11-19T00:19:21;17.60;73.60
55828;DHT22;41758;51.992;5.890;2023-11-19T00:21:47;17.60;73.60
55828;DHT22;41758;51.992;5.890;2023-11-19T00:24:13;17.70;73.60
55828;DHT22;41758;51.992;5.890;2023-11-19T00:26:41;17.70;73.70
55828;DHT22;41758;51.992;5.890;2023-11-19T00:29:07;17.70;73.80
55828;DHT22;41758;51.992;5.890;2023-11-19T00:31:33;17.70;73.70
55828;DHT22;41758;51.992;5.890;2023-11-19T00:33:58;17.70;73.70
55828;DHT22;41758;51.992;5.890;2023-11-19T00:36:24;17.70;73.70
55828;DHT22;41758;51.992;5.890;2023-11-19T00:38:51;17.70;73.60
55828;DHT22;41758;51.992;5.890;2023-11-19T00:41:18;17.80;73.50
55828;DHT22;41758;51.992;5.890;2023-11-19T00:43:44;17.70;73.60
55828;DHT22;41758;51.992;5.890;2023-11-19T00:46:10;17.70;73.70
55828;DHT22;41758;51.992;5.890;2023-11-19T00:48:39;17.80;73.50
55828;DHT22;41758;51.992;5.890;2023-11-19T00:51:05;17.80;73.60
55828;DHT22;41758;51.992;5.890;2023-11-19T00:53:31;17.70;73.70
55828;DHT22;41758;51.992;5.890;2023-11-19T00:55:57;17.70;73.60
55828;DHT22;41758;51.992;5.890;2023-11-19T00:58:23;17.80;73.50
55828;DHT22;41758;51.992;5.890;2023-11-19T01:00:49;17.70;73.40
55828;DHT22;41758;51.992;5.890;2023-11-19T01:03:15;17.70;73.70
55828;DHT22;41758;51.992;5.890;2023-11-19T01:05:44;17.80;73.60
55828;DHT22;41758;51.992;5.890;2023-11-19T01:08:10;17.80;73.70
55828;DHT22;41758;51.992;5.890;2023-11-19T01:10:39;17.80;73.70
55828;DHT22;41758;51.992;5.890;2023-11-19T01:13:05;17.80;73.60
55828;DHT22;41758;51.992;5.890;2023-11-19T01:15:34;17.80;73.60
55828;DHT22;41758;51.992;5.890;2023-11-19T01:17:59;17.80;73.60
55828;DHT22;41758;51.992;5.890;2023-11-19T01:20:27;17.80;73.50
55828;DHT22;41758;51.992;5.890;2023-11-19T01:22:54;17.80;73.40
55828;DHT22;41758;51.992;5.890;2023-11-19T01:25:19;17.90;73.30
55828;DHT22;41758;51.992;5.890;2023-11-19T01:27:45;17.90;73.30
55828;DHT22;41758;51.992;5.890;2023-11-19T01:30:11;17.90;73.20
55828;DHT22;41758;51.992;5.890;2023-11-19T01:32:40;17.90;73.30
55828;DHT22;41758;51.992;5.890;2023-11-19T01:35:06;17.80;73.20
55828;DHT22;41758;51.992;5.890;2023-11-19T01:37:33;17.90;73.20
55828;DHT22;41758;51.992;5.890;2023-11-19T01:40:01;17.90;73.30
55828;DHT22;41758;51.992;5.890;2023-11-19T01:42:28;17.90;73.30
55828;DHT22;41758;51.992;5.890;2023-11-19T01:45:00;17.90;73.10
55828;DHT22;41758;51.992;5.890;2023-11-19T01:47:30;17.90;73.20
55828;DHT22;41758;51.992;5.890;2023-11-19T01:49:56;17.90;73.30
55828;DHT22;41758;51.992;5.890;2023-11-19T01:52:23;17.90;73.20
55828;DHT22;41758;51.992;5.890;2023-11-19T01:54:50;17.90;73.10
55828;DHT22;41758;51.992;5.890;2023-11-19T01:57:17;17.90;73.10
55828;DHT22;41758;51.992;5.890;2023-11-19T01:59:43;17.90;73.10
55828;DHT22;41758;51.992;5.890;2023-11-19T02:02:10;17.90;73.10
55828;DHT22;41758;51.992;5.890;2023-11-19T02:04:38;17.90;73.30
55828;DHT22;41758;51.992;5.890;2023-11-19T02:07:04;17.90;73.10
55828;DHT22;41758;51.992;5.890;2023-11-19T02:09:30;17.90;73.00
55828;DHT22;41758;51.992;5.890;2023-11-19T02:11:55;17.90;73.00
55828;DHT22;41758;51.992;5.890;2023-11-19T02:14:25;17.90;73.00
55828;DHT22;41758;51.992;5.890;2023-11-19T02:16:52;17.90;73.00
55828;DHT22;41758;51.992;5.890;2023-11-19T02:19:21;17.90;73.00
55828;DHT22;41758;51.992;5.890;2023-11-19T02:21:47;17.90;72.90
55828;DHT22;41758;51.992;5.890;2023-11-19T02:24:14;17.90;73.00
55828;DHT22;41758;51.992;5.890;2023-11-19T02:26:44;17.90;73.00
55828;DHT22;41758;51.992;5.890;2023-11-19T02:29:12;17.90;73.00
55828;DHT22;41758;51.992;5.890;2023-11-19T02:31:38;17.90;72.80
55828;DHT22;41758;51.992;5.890;2023-11-19T02:34:04;17.90;72.80
55828;DHT22;41758;51.992;5.890;2023-11-19T02:36:31;17.90;72.90
55828;DHT22;41758;51.992;5.890;2023-11-19T02:38:58;17.90;72.80
55828;DHT22;41758;51.992;5.890;2023-11-19T02:41:23;17.90;72.90
55828;DHT22;41758;51.992;5.890;2023-11-19T02:43:49;17.90;72.80
55828;DHT22;41758;51.992;5.890;2023-11-19T02:46:15;17.90;72.50
55828;DHT22;41758;51.992;5.890;2023-11-19T02:48:43;17.80;72.30
55828;DHT22;41758;51.992;5.890;2023-11-19T02:51:10;17.80;72.50
55828;DHT22;41758;51.992;5.890;2023-11-19T02:53:36;17.80;72.50
55828;DHT22;41758;51.992;5.890;2023-11-19T02:56:03;17.80;72.40
55828;DHT22;41758;51.992;5.890;2023-11-19T02:58:43;17.80;72.40
55828;DHT22;41758;51.992;5.890;2023-11-19T03:01:10;17.80;72.60
55828;DHT22;41758;51.992;5.890;2023-11-19T03:03:44;17.70;72.40
55828;DHT22;41758;51.992;5.890;2023-11-19T03:06:14;17.70;72.50
55828;DHT22;41758;51.992;5.890;2023-11-19T03:08:40;17.60;72.40
55828;DHT22;41758;51.992;5.890;2023-11-19T03:11:06;17.70;72.40
55828;DHT22;41758;51.992;5.890;2023-11-19T03:13:31;17.60;72.40
55828;DHT22;41758;51.992;5.890;2023-11-19T03:15:57;17.60;72.40
55828;DHT22;41758;51.992;5.890;2023-11-19T03:18:23;17.60;72.50
55828;DHT22;41758;51.992;5.890;2023-11-19T03:20:48;17.50;72.20
55828;DHT22;41758;51.992;5.890;2023-11-19T03:23:15;17.50;72.10
55828;DHT22;41758;51.992;5.890;2023-11-19T03:25:41;17.50;72.30
55828;DHT22;41758;51.992;5.890;2023-11-19T03:28:06;17.50;72.20
55828;DHT22;41758;51.992;5.890;2023-11-19T03:30:32;17.40;72.30
55828;DHT22;41758;51.992;5.890;2023-11-19T03:32:58;17.40;72.00
55828;DHT22;41758;51.992;5.890;2023-11-19T03:35:25;17.40;72.00
55828;DHT22;41758;51.992;5.890;2023-11-19T03:37:51;17.40;72.00
55828;DHT22;41758;51.992;5.890;2023-11-19T03:40:17;17.30;72.20
55828;DHT22;41758;51.992;5.890;2023-11-19T03:42:45;17.30;72.10
55828;DHT22;41758;51.992;5.890;2023-11-19T03:45:10;17.30;72.20
55828;DHT22;41758;51.992;5.890;2023-11-19T03:47:36;17.30;72.20
55828;DHT22;41758;51.992;5.890;2023-11-19T03:50:02;17.20;72.00
55828;DHT22;41758;51.992;5.890;2023-11-19T03:52:29;17.20;72.00
55828;DHT22;41758;51.992;5.890;2023-11-19T03:54:55;17.10;72.10
55828;DHT22;41758;51.992;5.890;2023-11-19T03:57:22;17.10;72.10
55828;DHT22;41758;51.992;5.890;2023-11-19T03:59:48;17.10;71.80
55828;DHT22;41758;51.992;5.890;2023-11-19T04:02:13;17.00;71.80
55828;DHT22;41758;51.992;5.890;2023-11-19T04:04:39;16.90;71.90
55828;DHT22;41758;51.992;5.890;2023-11-19T04:07:05;16.90;72.00
55828;DHT22;41758;51.992;5.890;2023-11-19T04:09:31;16.90;71.80
55828;DHT22;41758;51.992;5.890;2023-11-19T04:12:00;16.80;72.00
55828;DHT22;41758;51.992;5.890;2023-11-19T04:14:26;16.80;72.00
55828;DHT22;41758;51.992;5.890;2023-11-19T04:16:53;16.70;71.80
55828;DHT22;41758;51.992;5.890;2023-11-19T04:19:19;16.70;72.00
55828;DHT22;41758;51.992;5.890;2023-11-19T04:21:45;16.60;72.10
55828;DHT22;41758;51.992;5.890;2023-11-19T04:24:12;16.70;71.90
55828;DHT22;41758;51.992;5.890;2023-11-19T04:26:43;16.60;71.80
55828;DHT22;41758;51.992;5.890;2023-11-19T04:29:12;16.60;71.80
55828;DHT22;41758;51.992;5.890;2023-11-19T04:31:38;16.50;71.90
55828;DHT22;41758;51.992;5.890;2023-11-19T04:34:05;16.50;72.00
55828;DHT22;41758;51.992;5.890;2023-11-19T04:36:32;16.40;72.00
55828;DHT22;41758;51.992;5.890;2023-11-19T04:38:59;16.40;71.90
55828;DHT22;41758;51.992;5.890;2023-11-19T04:41:25;16.40;72.00
55828;DHT22;41758;51.992;5.890;2023-11-19T04:43:53;16.40;72.00
55828;DHT22;41758;51.992;5.890;2023-11-19T04:46:19;16.40;72.00
55828;DHT22;41758;51.992;5.890;2023-11-19T04:48:45;16.40;71.90
55828;DHT22;41758;51.992;5.890;2023-11-19T04:51:10;16.30;72.00
55828;DHT22;41758;51.992;5.890;2023-11-19T04:53:36;16.30;72.00
55828;DHT22;41758;51.992;5.890;2023-11-19T04:56:10;16.30;71.90
55828;DHT22;41758;51.992;5.890;2023-11-19T04:58:36;16.30;72.10
55828;DHT22;41758;51.992;5.890;2023-11-19T05:01:03;16.30;71.90
55828;DHT22;41758;51.992;5.890;2023-11-19T05:03:30;16.30;72.00
55828;DHT22;41758;51.992;5.890;2023-11-19T05:05:55;16.20;72.10
55828;DHT22;41758;51.992;5.890;2023-11-19T05:08:21;16.20;72.10
55828;DHT22;41758;51.992;5.890;2023-11-19T05:10:47;16.20;72.00
55828;DHT22;41758;51.992;5.890;2023-11-19T05:13:12;16.10;72.00
55828;DHT22;41758;51.992;5.890;2023-11-19T05:15:38;16.10;72.00
55828;DHT22;41758;51.992;5.890;2023-11-19T05:18:04;16.20;72.00
55828;DHT22;41758;51.992;5.890;2023-11-19T05:20:30;16.20;72.00
55828;DHT22;41758;51.992;5.890;2023-11-19T05:22:56;16.10;72.10
55828;DHT22;41758;51.992;5.890;2023-11-19T05:25:22;16.10;72.20
55828;DHT22;41758;51.992;5.890;2023-11-19T05:27:47;16.10;72.20
55828;DHT22;41758;51.992;5.890;2023-11-19T05:30:13;16.20;72.30
55828;DHT22;41758;51.992;5.890;2023-11-19T05:32:39;16.20;72.30
55828;DHT22;41758;51.992;5.890;2023-11-19T05:35:05;16.30;72.30
55828;DHT22;41758;51.992;5.890;2023-11-19T05:37:30;16.30;72.30
55828;DHT22;41758;51.992;5.890;2023-11-19T05:39:56;16.30;72.20
55828;DHT22;41758;51.992;5.890;2023-11-19T05:42:22;16.30;72.20
55828;DHT22;41758;51.992;5.890;2023-11-19T05:44:49;16.30;72.20
55828;DHT22;41758;51.992;5.890;2023-11-19T05:47:14;16.30;72.30
55828;DHT22;41758;51.992;5.890;2023-11-19T05:49:40;16.30;72.10
55828;DHT22;41758;51.992;5.890;2023-11-19T05:52:06;16.30;71.90
55828;DHT22;41758;51.992;5.890;2023-11-19T05:54:33;16.30;72.00
55828;DHT22;41758;51.992;5.890;2023-11-19T05:57:04;16.30;72.00
55828;DHT22;41758;51.992;5.890;2023-11-19T05:59:30;16.30;71.90
55828;DHT22;41758;51.992;5.890;2023-11-19T06:01:57;16.30;71.90
55828;DHT22;41758;51.992;5.890;2023-11-19T06:04:23;16.30;71.70
55828;DHT22;41758;51.992;5.890;2023-11-19T06:06:49;16.30;72.00
55828;DHT22;41758;51.992;5.890;2023-11-19T06:09:14;16.30;72.20
55828;DHT22;41758;51.992;5.890;2023-11-19T06:11:40;16.30;72.20
55828;DHT22;41758;51.992;5.890;2023-11-19T06:14:06;16.30;71.90
55828;DHT22;41758;51.992;5.890;2023-11-19T06:16:32;16.30;71.90
55828;DHT22;41758;51.992;5.890;2023-11-19T06:18:58;16.30;71.70
55828;DHT22;41758;51.992;5.890;2023-11-19T06:21:24;16.30;71.80
55828;DHT22;41758;51.992;5.890;2023-11-19T06:23:50;16.30;71.60
55828;DHT22;41758;51.992;5.890;2023-11-19T06:26:17;16.30;71.60
55828;DHT22;41758;51.992;5.890;2023-11-19T06:28:43;16.30;71.80
55828;DHT22;41758;51.992;5.890;2023-11-19T06:31:10;16.30;71.80
55828;DHT22;41758;51.992;5.890;2023-11-19T06:33:35;16.30;71.70
55828;DHT22;41758;51.992;5.890;2023-11-19T06:36:01;16.20;71.70
55828;DHT22;41758;51.992;5.890;2023-11-19T06:38:27;16.30;71.80
55828;DHT22;41758;51.992;5.890;2023-11-19T06:40:52;16.30;71.70
55828;DHT22;41758;51.992;5.890;2023-11-19T06:43:18;16.20;71.70
55828;DHT22;41758;51.992;5.890;2023-11-19T06:45:43;16.20;71.80
55828;DHT22;41758;51.992;5.890;2023-11-19T06:48:09;16.20;71.90
55828;DHT22;41758;51.992;5.890;2023-11-19T06:50:35;16.20;71.80
55828;DHT22;41758;51.992;5.890;2023-11-19T06:53:01;16.20;71.80
55828;DHT22;41758;51.992;5.890;2023-11-19T06:55:27;16.20;71.80
55828;DHT22;41758;51.992;5.890;2023-11-19T06:57:52;16.20;71.80
55828;DHT22;41758;51.992;5.890;2023-11-19T07:00:18;16.20;71.90
55828;DHT22;41758;51.992;5.890;2023-11-19T07:02:44;16.20;72.00
55828;DHT22;41758;51.992;5.890;2023-11-19T07:05:10;16.20;72.00
55828;DHT22;41758;51.992;5.890;2023-11-19T07:07:37;16.20;71.90
55828;DHT22;41758;51.992;5.890;2023-11-19T07:10:03;16.20;71.70
55828;DHT22;41758;51.992;5.890;2023-11-19T07:12:30;16.20;71.90
55828;DHT22;41758;51.992;5.890;2023-11-19T07:14:56;16.20;71.70
55828;DHT22;41758;51.992;5.890;2023-11-19T07:17:21;16.30;71.90
55828;DHT22;41758;51.992;5.890;2023-11-19T07:19:50;16.30;72.00
55828;DHT22;41758;51.992;5.890;2023-11-19T07:22:17;16.30;72.10
55828;DHT22;41758;51.992;5.890;2023-11-19T07:24:43;16.30;72.10
55828;DHT22;41758;51.992;5.890;2023-11-19T07:27:08;16.30;71.90
55828;DHT22;41758;51.992;5.890;2023-11-19T07:29:35;16.30;71.90
55828;DHT22;41758;51.992;5.890;2023-11-19T07:32:01;16.30;71.80
55828;DHT22;41758;51.992;5.890;2023-11-19T07:34:30;16.30;71.70
55828;DHT22;41758;51.992;5.890;2023-11-19T07:36:56;16.30;71.40
55828;DHT22;41758;51.992;5.890;2023-11-19T07:39:25;16.30;71.40
55828;DHT22;41758;51.992;5.890;2023-11-19T07:41:50;16.30;71.30
55828;DHT22;41758;51.992;5.890;2023-11-19T07:44:16;16.30;71.50
55828;DHT22;41758;51.992;5.890;2023-11-19T07:46:42;16.30;71.60
55828;DHT22;41758;51.992;5.890;2023-11-19T07:49:07;16.30;71.70
55828;DHT22;41758;51.992;5.890;2023-11-19T07:51:33;16.30;71.50
55828;DHT22;41758;51.992;5.890;2023-11-19T07:53:59;16.30;71.60
55828;DHT22;41758;51.992;5.890;2023-11-19T07:56:24;16.30;71.70
55828;DHT22;41758;51.992;5.890;2023-11-19T07:58:50;16.30;71.80
55828;DHT22;41758;51.992;5.890;2023-11-19T08:01:16;16.40;71.60
55828;DHT22;41758;51.992;5.890;2023-11-19T08:03:41;16.40;71.40
55828;DHT22;41758;51.992;5.890;2023-11-19T08:06:07;16.40;71.60
55828;DHT22;41758;51.992;5.890;2023-11-19T08:08:33;16.50;72.00
55828;DHT22;41758;51.992;5.890;2023-11-19T08:11:00;16.50;71.70
55828;DHT22;41758;51.992;5.890;2023-11-19T08:13:26;16.50;71.80
55828;DHT22;41758;51.992;5.890;2023-11-19T08:15:52;16.60;71.70
55828;DHT22;41758;51.992;5.890;2023-11-19T08:18:17;16.60;71.70
55828;DHT22;41758;51.992;5.890;2023-11-19T08:20:44;16.70;71.60
55828;DHT22;41758;51.992;5.890;2023-11-19T08:23:10;16.70;71.70
55828;DHT22;41758;51.992;5.890;2023-11-19T08:25:36;16.70;71.80
55828;DHT22;41758;51.992;5.890;2023-11-19T08:28:02;16.80;71.80
55828;DHT22;41758;51.992;5.890;2023-11-19T08:30:29;16.80;71.30
55828;DHT22;41758;51.992;5.890;2023-11-19T08:32:55;16.80;71.20
55828;DHT22;41758;51.992;5.890;2023-11-19T08:35:21;16.80;71.00
55828;DHT22;41758;51.992;5.890;2023-11-19T08:37:47;16.80;70.90
55828;DHT22;41758;51.992;5.890;2023-11-19T08:40:13;16.80;70.70
55828;DHT22;41758;51.992;5.890;2023-11-19T08:42:40;16.80;71.00
55828;DHT22;41758;51.992;5.890;2023-11-19T08:45:07;16.80;71.30
55828;DHT22;41758;51.992;5.890;2023-11-19T08:47:36;16.80;71.10
55828;DHT22;41758;51.992;5.890;2023-11-19T08:50:01;16.80;71.10
55828;DHT22;41758;51.992;5.890;2023-11-19T08:52:29;16.80;71.10
55828;DHT22;41758;51.992;5.890;2023-11-19T08:54:55;16.80;71.20
55828;DHT22;41758;51.992;5.890;2023-11-19T08:57:21;16.90;71.10
55828;DHT22;41758;51.992;5.890;2023-11-19T08:59:47;16.90;70.80
55828;DHT22;41758;51.992;5.890;2023-11-19T09:02:12;16.90;70.80
55828;DHT22;41758;51.992;5.890;2023-11-19T09:04:38;16.90;71.00
55828;DHT22;41758;51.992;5.890;2023-11-19T09:07:04;16.90;71.10
55828;DHT22;41758;51.992;5.890;2023-11-19T09:09:29;17.00;71.10
55828;DHT22;41758;51.992;5.890;2023-11-19T09:11:55;17.00;70.90
55828;DHT22;41758;51.992;5.890;2023-11-19T09:14:21;17.00;70.90
55828;DHT22;41758;51.992;5.890;2023-11-19T09:16:51;17.00;70.80
55828;DHT22;41758;51.992;5.890;2023-11-19T09:19:17;17.00;70.90
55828;DHT22;41758;51.992;5.890;2023-11-19T09:21:43;17.10;71.00
55828;DHT22;41758;51.992;5.890;2023-11-19T09:24:09;17.10;71.00
55828;DHT22;41758;51.992;5.890;2023-11-19T09:26:34;17.10;70.80
55828;DHT22;41758;51.992;5.890;2023-11-19T09:29:02;17.10;70.90
55828;DHT22;41758;51.992;5.890;2023-11-19T09:31:27;17.10;71.10
55828;DHT22;41758;51.992;5.890;2023-11-19T09:33:53;17.20;71.00
55828;DHT22;41758;51.992;5.890;2023-11-19T09:36:18;17.20;70.90
55828;DHT22;41758;51.992;5.890;2023-11-19T09:38:45;17.20;71.00
55828;DHT22;41758;51.992;5.890;2023-11-19T09:41:10;17.30;70.70
55828;DHT22;41758;51.992;5.890;2023-11-19T09:43:42;17.30;71.00
55828;DHT22;41758;51.992;5.890;2023-11-19T09:46:12;17.30;70.70
55828;DHT22;41758;51.992;5.890;2023-11-19T09:48:39;17.30;70.40
55828;DHT22;41758;51.992;5.890;2023-11-19T09:51:09;17.30;70.40
55828;DHT22;41758;51.992;5.890;2023-11-19T09:53:36;17.30;70.10
55828;DHT22;41758;51.992;5.890;2023-11-19T09:56:05;17.30;70.10
55828;DHT22;41758;51.992;5.890;2023-11-19T09:58:32;17.40;70.00
55828;DHT22;41758;51.992;5.890;2023-11-19T10:00:58;17.30;70.20
55828;DHT22;41758;51.992;5.890;2023-11-19T10:03:26;17.40;70.40
55828;DHT22;41758;51.992;5.890;2023-11-19T10:05:53;17.40;70.70
55828;DHT22;41758;51.992;5.890;2023-11-19T10:08:20;17.50;70.60
55828;DHT22;41758;51.992;5.890;2023-11-19T10:10:46;17.50;70.00
55828;DHT22;41758;51.992;5.890;2023-11-19T10:13:12;17.60;70.10
55828;DHT22;41758;51.992;5.890;2023-11-19T10:15:40;17.60;70.30
55828;DHT22;41758;51.992;5.890;2023-11-19T10:18:06;17.60;69.90
55828;DHT22;41758;51.992;5.890;2023-11-19T10:20:36;17.60;69.60
55828;DHT22;41758;51.992;5.890;2023-11-19T10:23:02;17.60;69.80
55828;DHT22;41758;51.992;5.890;2023-11-19T10:25:29;17.60;70.10
55828;DHT22;41758;51.992;5.890;2023-11-19T10:27:56;17.70;70.20
55828;DHT22;41758;51.992;5.890;2023-11-19T10:30:23;17.70;70.30
55828;DHT22;41758;51.992;5.890;2023-11-19T10:33:08;17.70;70.10
55828;DHT22;41758;51.992;5.890;2023-11-19T10:35:35;17.70;69.40
55828;DHT22;41758;51.992;5.890;2023-11-19T10:38:14;17.70;69.40
55828;DHT22;41758;51.992;5.890;2023-11-19T10:40:43;17.70;69.90
55828;DHT22;41758;51.992;5.890;2023-11-19T10:43:09;17.70;70.00
55828;DHT22;41758;51.992;5.890;2023-11-19T10:45:36;17.70;70.40
55828;DHT22;41758;51.992;5.890;2023-11-19T10:48:03;17.80;70.00
55828;DHT22;41758;51.992;5.890;2023-11-19T10:50:33;17.80;70.40
55828;DHT22;41758;51.992;5.890;2023-11-19T10:52:59;17.90;70.60
55828;DHT22;41758;51.992;5.890;2023-11-19T10:55:30;18.00;70.50
55828;DHT22;41758;51.992;5.890;2023-11-19T10:57:59;18.00;69.40
55828;DHT22;41758;51.992;5.890;2023-11-19T11:00:26;18.10;69.90
55828;DHT22;41758;51.992;5.890;2023-11-19T11:02:56;18.20;70.40
55828;DHT22;41758;51.992;5.890;2023-11-19T11:05:26;18.30;70.10
55828;DHT22;41758;51.992;5.890;2023-11-19T11:07:52;18.30;69.40
55828;DHT22;41758;51.992;5.890;2023-11-19T11:10:21;18.30;69.70
55828;DHT22;41758;51.992;5.890;2023-11-19T11:12:48;18.30;69.30
55828;DHT22;41758;51.992;5.890;2023-11-19T11:15:17;18.40;69.30
55828;DHT22;41758;51.992;5.890;2023-11-19T11:17:45;18.40;69.50
55828;DHT22;41758;51.992;5.890;2023-11-19T11:20:11;18.50;69.40
55828;DHT22;41758;51.992;5.890;2023-11-19T11:22:55;18.60;69.60
55828;DHT22;41758;51.992;5.890;2023-11-19T11:25:46;18.60;68.50
55828;DHT22;41758;51.992;5.890;2023-11-19T11:36:16;18.60;66.90
55828;DHT22;41758;51.992;5.890;2023-11-19T11:38:44;18.50;67.10
55828;DHT22;41758;51.992;5.890;2023-11-19T11:41:23;18.50;66.60
55828;DHT22;41758;51.992;5.890;2023-11-19T11:43:54;18.50;66.70
55828;DHT22;41758;51.992;5.890;2023-11-19T11:49:04;18.50;67.40
55828;DHT22;41758;51.992;5.890;2023-11-19T11:57:06;18.50;66.80
55828;DHT22;41758;51.992;5.890;2023-11-19T12:02:11;18.60;66.20
55828;DHT22;41758;51.992;5.890;2023-11-19T12:04:38;18.60;65.90
55828;DHT22;41758;51.992;5.890;2023-11-19T12:07:11;18.60;66.00
55828;DHT22;41758;51.992;5.890;2023-11-19T12:09:42;18.60;66.20
55828;DHT22;41758;51.992;5.890;2023-11-19T12:12:19;18.70;66.80
55828;DHT22;41758;51.992;5.890;2023-11-19T12:20:06;19.30;64.80
55828;DHT22;41758;51.992;5.890;2023-11-19T12:22:38;19.30;65.50
55828;DHT22;41758;51.992;5.890;2023-11-19T12:25:09;19.30;63.80
55828;DHT22;41758;51.992;5.890;2023-11-19T12:27:35;19.30;64.50
55828;DHT22;41758;51.992;5.890;2023-11-19T12:30:02;19.30;65.00
55828;DHT22;41758;51.992;5.890;2023-11-19T12:32:42;19.30;63.00
55828;DHT22;41758;51.992;5.890;2023-11-19T12:35:09;19.40;63.50
55828;DHT22;41758;51.992;5.890;2023-11-19T12:37:44;19.50;62.40
55828;DHT22;41758;51.992;5.890;2023-11-19T12:40:25;19.60;62.70
55828;DHT22;41758;51.992;5.890;2023-11-19T12:42:52;19.60;63.00
55828;DHT22;41758;51.992;5.890;2023-11-19T12:45:18;19.60;62.70
55828;DHT22;41758;51.992;5.890;2023-11-19T12:47:46;19.50;61.70
55828;DHT22;41758;51.992;5.890;2023-11-19T12:50:18;19.50;62.40
55828;DHT22;41758;51.992;5.890;2023-11-19T12:53:04;19.40;63.50
55828;DHT22;41758;51.992;5.890;2023-11-19T12:55:30;19.40;61.70
55828;DHT22;41758;51.992;5.890;2023-11-19T12:57:58;19.30;61.50
55828;DHT22;41758;51.992;5.890;2023-11-19T13:00:25;19.30;61.30
55828;DHT22;41758;51.992;5.890;2023-11-19T13:02:56;19.20;62.40
55828;DHT22;41758;51.992;5.890;2023-11-19T13:05:34;19.20;62.10
55828;DHT22;41758;51.992;5.890;2023-11-19T13:08:06;19.20;62.10
55828;DHT22;41758;51.992;5.890;2023-11-19T13:10:33;19.10;61.40
55828;DHT22;41758;51.992;5.890;2023-11-19T13:13:05;19.20;61.30
55828;DHT22;41758;51.992;5.890;2023-11-19T13:15:32;19.10;60.90
55828;DHT22;41758;51.992;5.890;2023-11-19T13:17:58;19.10;61.60
55828;DHT22;41758;51.992;5.890;2023-11-19T13:20:24;19.10;61.30
55828;DHT22;41758;51.992;5.890;2023-11-19T13:22:59;19.10;60.90
55828;DHT22;41758;51.992;5.890;2023-11-19T13:25:29;19.00;61.10
55828;DHT22;41758;51.992;5.890;2023-11-19T13:27:56;18.90;60.90
55828;DHT22;41758;51.992;5.890;2023-11-19T13:30:23;18.90;61.10
55828;DHT22;41758;51.992;5.890;2023-11-19T13:32:50;18.80;61.90
55828;DHT22;41758;51.992;5.890;2023-11-19T13:35:16;18.80;61.70
55828;DHT22;41758;51.992;5.890;2023-11-19T13:37:45;18.80;62.40
55828;DHT22;41758;51.992;5.890;2023-11-19T13:40:12;18.80;62.70
55828;DHT22;41758;51.992;5.890;2023-11-19T13:42:44;18.80;63.30
55828;DHT22;41758;51.992;5.890;2023-11-19T13:45:13;18.80;62.10
55828;DHT22;41758;51.992;5.890;2023-11-19T13:47:41;18.70;62.60
55828;DHT22;41758;51.992;5.890;2023-11-19T13:50:11;18.70;62.50
55828;DHT22;41758;51.992;5.890;2023-11-19T13:52:37;18.70;62.20
55828;DHT22;41758;51.992;5.890;2023-11-19T13:55:08;18.60;62.50
55828;DHT22;41758;51.992;5.890;2023-11-19T13:57:35;18.60;62.20
55828;DHT22;41758;51.992;5.890;2023-11-19T14:00:10;18.60;61.80
55828;DHT22;41758;51.992;5.890;2023-11-19T14:02:39;18.50;62.00
55828;DHT22;41758;51.992;5.890;2023-11-19T14:05:06;18.40;62.40
55828;DHT22;41758;51.992;5.890;2023-11-19T14:07:32;18.40;63.00
55828;DHT22;41758;51.992;5.890;2023-11-19T14:09:58;18.30;63.70
55828;DHT22;41758;51.992;5.890;2023-11-19T14:12:24;18.30;63.70
55828;DHT22;41758;51.992;5.890;2023-11-19T14:14:49;18.30;64.00
55828;DHT22;41758;51.992;5.890;2023-11-19T14:17:15;18.30;63.40
55828;DHT22;41758;51.992;5.890;2023-11-19T14:19:44;18.20;63.40
55828;DHT22;41758;51.992;5.890;2023-11-19T14:22:10;18.10;63.50
55828;DHT22;41758;51.992;5.890;2023-11-19T14:24:37;18.10;63.90
55828;DHT22;41758;51.992;5.890;2023-11-19T14:27:02;18.10;64.00
55828;DHT22;41758;51.992;5.890;2023-11-19T14:29:28;18.10;64.70
55828;DHT22;41758;51.992;5.890;2023-11-19T14:31:55;18.10;65.10
55828;DHT22;41758;51.992;5.890;2023-11-19T14:34:21;18.10;65.20
55828;DHT22;41758;51.992;5.890;2023-11-19T14:36:47;18.10;64.90
55828;DHT22;41758;51.992;5.890;2023-11-19T14:39:13;18.20;65.00
55828;DHT22;41758;51.992;5.890;2023-11-19T14:41:39;18.10;64.80
55828;DHT22;41758;51.992;5.890;2023-11-19T14:44:05;18.10;64.70
55828;DHT22;41758;51.992;5.890;2023-11-19T14:46:31;18.00;64.50
55828;DHT22;41758;51.992;5.890;2023-11-19T14:48:57;18.00;64.40
55828;DHT22;41758;51.992;5.890;2023-11-19T14:51:22;17.90;63.60
55828;DHT22;41758;51.992;5.890;2023-11-19T14:53:48;17.90;64.00
55828;DHT22;41758;51.992;5.890;2023-11-19T14:56:14;17.80;64.20
55828;DHT22;41758;51.992;5.890;2023-11-19T14:58:40;17.70;64.60
55828;DHT22;41758;51.992;5.890;2023-11-19T15:01:06;17.70;64.60
55828;DHT22;41758;51.992;5.890;2023-11-19T15:03:33;17.60;65.00
55828;DHT22;41758;51.992;5.890;2023-11-19T15:05:59;17.60;64.90
55828;DHT22;41758;51.992;5.890;2023-11-19T15:08:25;17.60;65.00
55828;DHT22;41758;51.992;5.890;2023-11-19T15:10:51;17.60;65.40
55828;DHT22;41758;51.992;5.890;2023-11-19T15:13:16;17.50;65.40
55828;DHT22;41758;51.992;5.890;2023-11-19T15:15:42;17.50;65.70
55828;DHT22;41758;51.992;5.890;2023-11-19T15:18:08;17.50;65.90
55828;DHT22;41758;51.992;5.890;2023-11-19T15:20:35;17.50;66.00
55828;DHT22;41758;51.992;5.890;2023-11-19T15:23:01;17.50;65.90
55828;DHT22;41758;51.992;5.890;2023-11-19T15:25:27;17.50;65.70
55828;DHT22;41758;51.992;5.890;2023-11-19T15:27:53;17.40;65.70
55828;DHT22;41758;51.992;5.890;2023-11-19T15:30:19;17.40;65.60
55828;DHT22;41758;51.992;5.890;2023-11-19T15:32:44;17.40;65.90
55828;DHT22;41758;51.992;5.890;2023-11-19T15:35:10;17.40;65.30
55828;DHT22;41758;51.992;5.890;2023-11-19T15:37:36;17.40;65.40
55828;DHT22;41758;51.992;5.890;2023-11-19T15:40:06;17.40;65.50
55828;DHT22;41758;51.992;5.890;2023-11-19T15:42:34;17.40;65.70
55828;DHT22;41758;51.992;5.890;2023-11-19T15:45:00;17.40;65.40
55828;DHT22;41758;51.992;5.890;2023-11-19T15:47:25;17.40;64.70
55828;DHT22;41758;51.992;5.890;2023-11-19T15:49:51;17.40;65.20
55828;DHT22;41758;51.992;5.890;2023-11-19T15:52:17;17.40;65.20
55828;DHT22;41758;51.992;5.890;2023-11-19T15:54:42;17.40;65.20